Time;durP1;ratioP1;P1;durP2;ratioP2;P2;SDS_P1;SDS_P2;PMS_P1;PMS_P2;Temp;Humidity;BMP_temperature;BMP_pressure;BME280_temperature;BME280_humidity;BME280_pressure;Samples;Min_cycle;Max_cycle;Signal;HPM_P1;HPM_P2
2021/05/03 00:01:09;;;;;;;6.40;3.45;;;6.90;99.90;;;;;;1942300;74;21055;-77
2021/05/03 00:03:35;;;;;;;4.25;2.83;;;6.90;99.90;;;;;;1942797;74;21051;-76
2021/05/03 00:06:01;;;;;;;4.85;2.87;;;6.80;99.90;;;;;;1942565;74;21052;-76
2021/05/03 00:08:28;;;;;;;4.37;2.90;;;6.70;99.90;;;;;;1942443;74;21121;-76
2021/05/03 00:10:54;;;;;;;5.12;3.58;;;6.70;99.90;;;;;;1942309;74;21075;-76
2021/05/03 00:13:20;;;;;;;5.78;2.80;;;6.60;99.90;;;;;;1942350;74;21040;-75
2021/05/03 00:15:48;;;;;;;4.17;2.98;;;6.50;99.90;;;;;;1942369;74;21060;-76
2021/05/03 00:18:20;;;;;;;10.80;3.17;;;6.40;99.90;;;;;;1941768;74;21177;-77
2021/05/03 00:20:46;;;;;;;3.72;3.00;;;6.40;99.90;;;;;;1943515;73;21032;-75
2021/05/03 00:23:12;;;;;;;2.90;2.58;;;6.20;99.90;;;;;;1941079;74;21055;-76
2021/05/03 00:25:38;;;;;;;4.33;3.42;;;6.10;99.90;;;;;;1942550;73;21052;-77
2021/05/03 00:28:04;;;;;;;17.27;3.42;;;6.00;99.90;;;;;;1942479;73;21126;-77
2021/05/03 00:30:30;;;;;;;4.60;3.20;;;5.90;99.90;;;;;;1942136;74;21056;-77
2021/05/03 00:32:57;;;;;;;4.83;3.05;;;5.90;99.90;;;;;;1942237;74;21067;-76
2021/05/03 00:35:23;;;;;;;4.28;2.47;;;5.90;99.90;;;;;;1942204;73;21067;-77
2021/05/03 00:37:49;;;;;;;5.87;2.80;;;5.80;99.90;;;;;;1942435;74;21121;-76
2021/05/03 00:40:15;;;;;;;4.03;2.83;;;5.70;99.90;;;;;;1942428;73;21055;-76
2021/05/03 00:42:45;;;;;;;2.98;2.47;;;5.70;99.90;;;;;;1942356;74;21055;-76
2021/05/03 00:45:11;;;;;;;3.40;2.55;;;5.70;99.90;;;;;;1942382;74;21057;-76
2021/05/03 00:47:37;;;;;;;3.27;2.67;;;5.60;99.90;;;;;;1942288;74;21052;-76
2021/05/03 00:50:03;;;;;;;2.77;2.50;;;5.50;99.90;;;;;;1942586;73;21209;-75
2021/05/03 00:52:29;;;;;;;3.20;2.60;;;5.40;99.90;;;;;;1942319;74;21117;-75
2021/05/03 00:54:58;;;;;;;2.85;2.50;;;5.40;99.90;;;;;;1942166;74;21040;-76
2021/05/03 00:57:29;;;;;;;7.05;2.50;;;5.30;99.90;;;;;;1943054;73;21083;-77
2021/05/03 00:59:57;;;;;;;3.00;2.65;;;5.20;99.90;;;;;;1942189;74;21020;-77
2021/05/03 01:02:23;;;;;;;4.70;3.12;;;5.20;99.90;;;;;;1942865;73;21040;-76
2021/05/03 01:04:56;;;;;;;4.65;3.33;;;5.30;99.90;;;;;;1942204;74;21420;-76
2021/05/03 01:07:22;;;;;;;4.85;2.85;;;5.30;99.90;;;;;;1942345;73;21064;-76
2021/05/03 01:09:48;;;;;;;4.45;2.90;;;5.20;99.90;;;;;;1942630;73;21455;-76
2021/05/03 01:12:15;;;;;;;6.25;3.62;;;5.30;99.90;;;;;;1942245;74;21056;-76
2021/05/03 01:14:41;;;;;;;3.95;3.02;;;5.40;99.90;;;;;;1942161;74;21179;-76
2021/05/03 01:17:11;;;;;;;5.00;3.50;;;5.40;99.90;;;;;;1942238;73;21475;-77
2021/05/03 01:19:35;;;;;;;5.97;3.00;;;5.50;99.90;;;;;;1940668;74;21051;-77
2021/05/03 01:22:01;;;;;;;3.67;3.12;;;5.60;99.90;;;;;;1942095;74;21053;-76
2021/05/03 01:24:27;;;;;;;2.70;2.50;;;5.60;99.90;;;;;;1942359;73;21129;-76
2021/05/03 01:26:53;;;;;;;4.22;2.87;;;5.60;99.90;;;;;;1943193;73;21048;-76
2021/05/03 01:29:19;;;;;;;3.67;3.20;;;5.70;99.90;;;;;;1942392;73;21032;-76
2021/05/03 01:31:48;;;;;;;3.52;3.12;;;5.60;99.90;;;;;;1942788;73;21028;-76
2021/05/03 01:34:17;;;;;;;5.70;3.42;;;5.70;99.90;;;;;;1942367;73;21495;-77
2021/05/03 01:36:42;;;;;;;2.85;2.58;;;5.60;99.90;;;;;;1941936;73;21063;-77
2021/05/03 01:39:08;;;;;;;3.62;3.15;;;5.70;99.90;;;;;;1942546;73;21063;-77
2021/05/03 01:41:35;;;;;;;11.00;3.35;;;5.70;99.90;;;;;;1942171;74;21464;-76
2021/05/03 01:44:16;;;;;;;5.60;3.65;;;5.80;99.90;;;;;;1942591;73;21118;-76
2021/05/03 01:46:33;;;;;;;3.30;3.00;;;5.80;99.90;;;;;;1933138;74;21441;-77
2021/05/03 01:48:59;;;;;;;4.78;3.08;;;5.70;99.90;;;;;;1940525;73;21064;-75
2021/05/03 01:51:27;;;;;;;5.90;3.55;;;5.70;99.90;;;;;;1941581;73;21056;-76
2021/05/03 01:53:53;;;;;;;3.42;3.10;;;5.70;99.90;;;;;;1942264;74;21080;-75
2021/05/03 01:56:19;;;;;;;3.90;2.83;;;5.60;99.90;;;;;;1942512;74;21048;-77
2021/05/03 01:58:46;;;;;;;4.60;3.77;;;5.60;99.90;;;;;;1942169;74;21098;-77
2021/05/03 02:01:14;;;;;;;4.73;3.50;;;5.50;99.90;;;;;;1942856;73;21048;-77
2021/05/03 02:03:40;;;;;;;5.62;3.65;;;5.50;99.90;;;;;;1942405;73;21048;-77
2021/05/03 02:06:06;;;;;;;3.20;2.90;;;5.40;99.90;;;;;;1942094;74;21109;-77
2021/05/03 02:08:33;;;;;;;5.60;3.80;;;5.30;99.90;;;;;;1942530;73;21487;-75
2021/05/03 02:10:59;;;;;;;5.20;3.58;;;5.20;99.90;;;;;;1942212;74;21440;-76
2021/05/03 02:13:37;;;;;;;5.47;3.60;;;5.20;99.90;;;;;;1942119;74;21480;-75
2021/05/03 02:16:04;;;;;;;3.80;3.42;;;5.10;99.90;;;;;;1942370;73;21582;-76
2021/05/03 02:18:30;;;;;;;5.72;3.17;;;5.00;99.90;;;;;;1942471;73;21032;-76
2021/05/03 02:20:59;;;;;;;5.72;3.65;;;5.00;99.90;;;;;;1942451;74;21051;-76
2021/05/03 02:23:25;;;;;;;9.60;4.55;;;5.00;99.90;;;;;;1942300;74;21024;-76
2021/05/03 02:25:57;;;;;;;5.50;4.12;;;4.90;99.90;;;;;;1942185;74;21046;-77
2021/05/03 02:28:26;;;;;;;5.75;4.25;;;4.80;99.90;;;;;;1942126;74;21530;-76
2021/05/03 02:30:52;;;;;;;6.50;4.30;;;4.90;99.90;;;;;;1942261;73;21059;-76
2021/05/03 02:33:18;;;;;;;6.47;4.50;;;4.90;99.90;;;;;;1942399;74;21056;-76
2021/05/03 02:35:45;;;;;;;7.33;4.37;;;4.90;99.90;;;;;;1942252;74;21420;-76
2021/05/03 02:38:12;;;;;;;6.58;4.00;;;4.90;99.90;;;;;;1942705;73;21024;-76
2021/05/03 02:40:38;;;;;;;5.85;4.53;;;4.80;99.90;;;;;;1942229;73;21435;-76
2021/05/03 02:43:05;;;;;;;6.92;4.53;;;4.80;99.90;;;;;;1942256;74;21051;-75
2021/05/03 02:45:37;;;;;;;5.08;4.35;;;4.70;99.90;;;;;;1942156;74;21049;-76
2021/05/03 02:48:03;;;;;;;5.28;4.25;;;4.70;99.90;;;;;;1942221;74;21052;-76
2021/05/03 02:50:29;;;;;;;5.42;4.35;;;4.70;99.90;;;;;;1942221;74;21118;-75
2021/05/03 02:52:55;;;;;;;7.05;4.00;;;4.70;99.90;;;;;;1942680;73;21059;-76
2021/05/03 02:55:21;;;;;;;6.33;3.62;;;4.60;99.90;;;;;;1942042;74;21533;-76
2021/05/03 02:57:48;;;;;;;6.12;4.60;;;4.50;99.90;;;;;;1942306;73;21498;-76
2021/05/03 03:00:14;;;;;;;5.53;4.05;;;4.40;99.90;;;;;;1942161;73;21585;-76
2021/05/03 03:02:40;;;;;;;9.75;5.12;;;4.30;99.90;;;;;;1942334;74;21492;-76
2021/05/03 03:05:09;;;;;;;5.33;3.87;;;4.30;99.90;;;;;;1942141;74;21033;-75
2021/05/03 03:07:35;;;;;;;5.62;4.28;;;4.30;99.90;;;;;;1942222;74;21048;-75
2021/05/03 03:10:03;;;;;;;5.72;4.03;;;4.30;99.90;;;;;;1942531;74;21117;-76
2021/05/03 03:12:32;;;;;;;5.62;4.33;;;4.20;99.90;;;;;;1942393;74;21117;-75
2021/05/03 03:15:04;;;;;;;6.47;4.75;;;4.10;99.90;;;;;;1942289;74;21134;-75
2021/05/03 03:17:33;;;;;;;5.70;4.37;;;4.20;99.90;;;;;;1942330;74;21051;-76
2021/05/03 03:19:59;;;;;;;7.70;4.83;;;4.30;99.90;;;;;;1942488;73;21052;-76
2021/05/03 03:22:25;;;;;;;7.00;4.70;;;4.30;99.90;;;;;;1941580;74;21117;-75
2021/05/03 03:24:52;;;;;;;5.15;4.37;;;4.30;99.90;;;;;;1919321;74;21067;-77
2021/05/03 03:27:21;;;;;;;5.50;4.62;;;4.40;99.90;;;;;;1919203;73;21059;-77
2021/05/03 03:29:47;;;;;;;7.45;4.85;;;4.30;99.90;;;;;;1890817;75;21066;-75
2021/05/03 03:32:13;;;;;;;14.20;4.92;;;4.20;99.90;;;;;;1907416;74;21058;-75
2021/05/03 03:34:39;;;;;;;7.30;4.35;;;4.20;99.90;;;;;;1927420;74;21056;-76
2021/05/03 03:37:05;;;;;;;7.70;5.28;;;4.20;99.90;;;;;;1933988;73;21063;-76
2021/05/03 03:39:31;;;;;;;6.55;4.75;;;4.10;99.90;;;;;;1899820;75;21036;-76
2021/05/03 03:41:57;;;;;;;6.08;4.45;;;4.10;99.90;;;;;;1859831;76;21075;-75
2021/05/03 03:44:23;;;;;;;7.87;4.95;;;4.20;99.90;;;;;;1942333;73;21176;-76
2021/05/03 03:46:52;;;;;;;6.00;4.78;;;4.20;99.90;;;;;;1942394;74;21479;-75
2021/05/03 03:49:19;;;;;;;6.47;4.45;;;4.20;99.90;;;;;;1942753;73;21122;-75
2021/05/03 03:51:45;;;;;;;7.15;4.37;;;4.20;99.90;;;;;;1943389;73;21060;-75
2021/05/03 03:54:19;;;;;;;10.13;5.65;;;4.20;99.90;;;;;;1942445;74;21056;-76
2021/05/03 03:56:45;;;;;;;13.25;4.80;;;4.30;99.90;;;;;;1942625;73;21033;-76
2021/05/03 03:59:12;;;;;;;8.38;5.45;;;4.30;99.90;;;;;;1942404;74;21068;-76
2021/05/03 04:01:38;;;;;;;7.42;4.92;;;4.30;99.90;;;;;;1942505;73;21476;-76
2021/05/03 04:04:06;;;;;;;6.50;5.25;;;4.30;99.90;;;;;;1942460;73;21595;-76
2021/05/03 04:06:41;;;;;;;9.55;6.05;;;4.30;99.90;;;;;;1942318;73;21051;-76
2021/05/03 04:09:08;;;;;;;8.03;5.78;;;4.40;99.90;;;;;;1940953;74;21121;-77
2021/05/03 04:22:49;;;;;;;7.90;5.25;;;4.70;99.90;;;;;;1904592;75;21128;-75
2021/05/03 04:25:23;;;;;;;7.62;5.35;;;4.70;99.90;;;;;;1902471;75;21155;-77
2021/05/03 04:27:47;;;;;;;11.50;5.97;;;4.60;99.90;;;;;;1903463;75;21070;-77
2021/05/03 04:30:12;;;;;;;9.08;5.22;;;4.70;99.90;;;;;;1904340;75;21422;-77
2021/05/03 04:32:38;;;;;;;8.08;5.72;;;4.60;99.90;;;;;;1904458;75;21061;-77
2021/05/03 04:35:07;;;;;;;9.78;6.17;;;4.60;99.90;;;;;;1904521;75;21058;-77
2021/05/03 04:37:33;;;;;;;5.72;5.03;;;4.60;99.90;;;;;;1904414;75;21066;-77
2021/05/03 04:39:59;;;;;;;12.07;5.55;;;4.60;99.90;;;;;;1904921;75;21179;-77
2021/05/03 04:42:25;;;;;;;9.33;5.35;;;4.60;99.90;;;;;;1904452;75;21070;-76
2021/05/03 04:44:51;;;;;;;7.97;5.37;;;4.70;99.90;;;;;;1904896;75;21486;-76
2021/05/03 04:47:17;;;;;;;10.08;6.28;;;4.70;99.90;;;;;;1904412;75;21442;-77
2021/05/03 04:49:43;;;;;;;11.75;7.00;;;4.70;99.90;;;;;;1904563;75;21535;-76
2021/05/03 04:52:10;;;;;;;8.03;5.95;;;4.80;99.90;;;;;;1904446;75;21606;-76
2021/05/03 04:54:36;;;;;;;11.03;6.62;;;4.80;99.90;;;;;;1904325;75;21109;-76
2021/05/03 04:57:02;;;;;;;8.43;6.15;;;4.80;99.90;;;;;;1904829;75;21059;-76
2021/05/03 04:59:28;;;;;;;10.15;6.28;;;4.90;99.90;;;;;;1904466;75;21061;-76
2021/05/03 05:01:54;;;;;;;8.70;5.80;;;4.90;99.90;;;;;;1904501;75;21062;-76
2021/05/03 05:04:20;;;;;;;6.97;5.45;;;4.90;99.90;;;;;;1904479;75;21054;-84
2021/05/03 05:06:47;;;;;;;11.10;5.05;;;5.00;99.90;;;;;;1904371;75;21054;-76
2021/05/03 05:09:13;;;;;;;8.48;5.58;;;5.00;99.90;;;;;;1904316;75;21112;-76
2021/05/03 05:11:39;;;;;;;9.78;5.62;;;5.00;99.90;;;;;;1906232;75;21371;-76
2021/05/03 05:14:05;;;;;;;12.65;5.60;;;5.00;99.90;;;;;;1904451;75;21026;-76
2021/05/03 05:16:31;;;;;;;12.13;6.20;;;5.10;99.90;;;;;;1904379;75;21109;-75
2021/05/03 05:18:57;;;;;;;9.00;5.92;;;5.20;99.90;;;;;;1904397;75;21038;-76
2021/05/03 05:21:23;;;;;;;9.75;5.72;;;5.30;99.90;;;;;;1904760;75;21120;-76
2021/05/03 05:23:49;;;;;;;9.03;5.73;;;5.30;99.90;;;;;;1904490;75;21113;-76
2021/05/03 05:26:15;;;;;;;10.15;5.92;;;5.40;99.90;;;;;;1904263;75;21073;-76
2021/05/03 05:28:42;;;;;;;8.70;6.58;;;5.50;99.90;;;;;;1904464;75;21477;-75
2021/05/03 05:31:08;;;;;;;6.67;5.40;;;5.70;99.90;;;;;;1906230;75;21523;-75
2021/05/03 05:33:34;;;;;;;5.92;5.33;;;5.70;99.90;;;;;;1904260;75;21517;-75
2021/05/03 05:36:00;;;;;;;8.35;5.35;;;5.70;99.90;;;;;;1904620;75;21050;-75
2021/05/03 05:38:26;;;;;;;7.42;5.28;;;5.80;99.90;;;;;;1904214;75;21131;-75
2021/05/03 05:40:52;;;;;;;6.08;4.80;;;5.80;99.90;;;;;;1904462;75;21058;-75
2021/05/03 05:43:18;;;;;;;7.25;5.20;;;5.90;99.90;;;;;;1904185;75;21061;-75
2021/05/03 05:45:44;;;;;;;8.80;5.87;;;6.00;99.90;;;;;;1904307;75;21059;-74
2021/05/03 05:48:11;;;;;;;9.03;5.28;;;6.00;99.90;;;;;;1904583;75;21122;-74
2021/05/03 05:50:37;;;;;;;13.03;5.03;;;6.00;99.90;;;;;;1904337;75;21127;-75
2021/05/03 05:53:03;;;;;;;6.00;5.12;;;5.90;99.90;;;;;;1904534;75;21054;-75
2021/05/03 05:55:29;;;;;;;9.58;5.08;;;6.00;99.90;;;;;;1904334;75;21066;-75
2021/05/03 05:57:55;;;;;;;7.10;5.40;;;5.90;99.90;;;;;;1904531;75;21041;-75
2021/05/03 06:00:21;;;;;;;9.83;5.58;;;5.90;99.90;;;;;;1904577;75;21067;-75
2021/05/03 06:02:47;;;;;;;12.88;6.12;;;6.00;99.90;;;;;;1901875;75;21039;-75
2021/05/03 06:05:14;;;;;;;10.63;6.12;;;6.10;99.90;;;;;;1904397;75;21065;-75
2021/05/03 06:07:40;;;;;;;6.50;5.08;;;6.10;99.90;;;;;;1904606;75;21070;-74
2021/05/03 06:10:07;;;;;;;10.08;5.00;;;6.20;99.90;;;;;;1904456;75;21205;-74
2021/05/03 06:12:33;;;;;;;6.08;4.67;;;6.30;99.90;;;;;;1904547;75;21131;-74
2021/05/03 06:14:59;;;;;;;5.87;4.45;;;6.30;99.90;;;;;;1904658;75;21113;-75
2021/05/03 06:17:25;;;;;;;7.72;4.97;;;6.50;99.90;;;;;;1904294;75;21054;-75
2021/05/03 06:19:51;;;;;;;11.38;5.78;;;6.50;99.90;;;;;;1904679;75;21119;-76
2021/05/03 06:22:18;;;;;;;9.93;5.45;;;6.60;99.90;;;;;;1904478;75;21049;-75
2021/05/03 06:24:44;;;;;;;9.83;5.40;;;6.70;99.90;;;;;;1904960;75;21075;-77
2021/05/03 06:27:13;;;;;;;7.37;4.83;;;6.70;99.90;;;;;;1904751;75;21175;-76
2021/05/03 06:29:39;;;;;;;7.75;5.03;;;6.90;99.90;;;;;;1904840;75;21544;-76
2021/05/03 06:32:05;;;;;;;8.80;5.33;;;6.90;99.90;;;;;;1904273;75;21602;-75
2021/05/03 06:34:31;;;;;;;10.23;5.22;;;6.90;99.90;;;;;;1904350;75;21539;-76
2021/05/03 06:36:58;;;;;;;7.45;5.00;;;7.20;99.90;;;;;;1904194;75;21124;-76
2021/05/03 06:39:24;;;;;;;9.70;4.83;;;7.40;99.90;;;;;;1904239;75;21042;-76
2021/05/03 06:41:50;;;;;;;6.95;5.37;;;7.60;99.90;;;;;;1904313;75;21176;-75
2021/05/03 06:44:16;;;;;;;9.18;5.58;;;7.80;99.90;;;;;;1904248;75;21107;-76
2021/05/03 06:46:42;;;;;;;9.38;5.28;;;7.80;99.90;;;;;;1904409;75;21139;-77
2021/05/03 06:49:08;;;;;;;9.43;4.87;;;7.80;99.90;;;;;;1904461;75;21062;-76
2021/05/03 06:51:34;;;;;;;6.15;4.65;;;7.90;99.90;;;;;;1904430;75;21071;-76
2021/05/03 06:54:00;;;;;;;7.00;5.15;;;7.90;99.90;;;;;;1904369;75;21043;-76
2021/05/03 06:56:26;;;;;;;7.37;4.33;;;7.90;99.90;;;;;;1904232;75;21143;-76
2021/05/03 06:58:53;;;;;;;9.75;5.12;;;8.00;99.90;;;;;;1904587;75;21437;-76
2021/05/03 07:01:19;;;;;;;5.45;4.50;;;8.30;99.90;;;;;;1904426;75;21518;-76
2021/05/03 07:03:45;;;;;;;10.15;4.55;;;8.10;99.90;;;;;;1904342;75;21490;-76
2021/05/03 07:06:12;;;;;;;8.38;4.70;;;8.20;99.90;;;;;;1904347;75;21081;-76
2021/05/03 07:08:39;;;;;;;8.35;5.05;;;8.60;99.90;;;;;;1904323;75;21042;-76
2021/05/03 07:11:12;;;;;;;8.83;4.47;;;8.70;99.90;;;;;;1904876;75;21074;-77
2021/05/03 07:13:33;;;;;;;5.50;4.28;;;8.80;99.90;;;;;;1903381;74;21464;-77
2021/05/03 07:16:03;;;;;;;5.78;4.20;;;9.10;99.90;;;;;;1904642;75;21485;-77
2021/05/03 07:18:27;;;;;;;7.28;4.37;;;9.30;99.90;;;;;;1903361;75;21062;-77
2021/05/03 07:20:53;;;;;;;4.58;3.77;;;9.60;99.90;;;;;;1912455;73;21504;-76
2021/05/03 07:23:19;;;;;;;7.87;3.98;;;9.80;99.90;;;;;;1916350;74;21065;-78
2021/05/03 07:25:45;;;;;;;5.25;3.42;;;10.60;99.90;;;;;;1923046;73;21509;-78
2021/05/03 07:28:12;;;;;;;5.67;3.70;;;10.80;99.90;;;;;;1922043;73;21472;-78
2021/05/03 07:30:38;;;;;;;6.10;3.80;;;11.00;99.90;;;;;;1914822;73;21505;-79
2021/05/03 07:33:04;;;;;;;4.65;3.08;;;11.30;99.90;;;;;;1915366;74;21138;-78
2021/05/03 07:35:30;;;;;;;5.70;3.27;;;11.10;99.90;;;;;;1910706;74;21074;-79
2021/05/03 07:37:56;;;;;;;6.12;3.30;;;11.30;99.90;;;;;;1917899;74;21046;-78
2021/05/03 07:40:22;;;;;;;4.00;2.80;;;10.90;99.90;;;;;;1915754;73;21061;-78
2021/05/03 07:42:48;;;;;;;5.97;3.42;;;11.00;99.90;;;;;;1916635;73;21072;-80
2021/05/03 07:45:15;;;;;;;3.45;2.77;;;11.70;99.90;;;;;;1912154;74;21062;-79
2021/05/03 07:47:41;;;;;;;5.17;3.15;;;11.20;99.90;;;;;;1912784;74;21125;-80
2021/05/03 07:50:07;;;;;;;7.00;3.72;;;10.70;99.90;;;;;;1914159;74;21066;-79
2021/05/03 07:52:33;;;;;;;4.45;3.20;;;11.30;99.90;;;;;;1916185;73;21140;-78
2021/05/03 07:54:59;;;;;;;5.83;3.08;;;11.80;99.90;;;;;;1913253;74;21215;-78
2021/05/03 07:57:25;;;;;;;5.15;3.27;;;11.90;99.90;;;;;;1915333;74;21070;-78
2021/05/03 07:59:51;;;;;;;4.22;2.92;;;12.30;99.90;;;;;;1917826;74;21042;-79
2021/05/03 08:02:17;;;;;;;7.10;3.12;;;12.70;99.90;;;;;;1918505;73;21130;-79
2021/05/03 08:04:44;;;;;;;5.60;3.30;;;12.50;99.90;;;;;;1899684;74;21163;-78
2021/05/03 08:07:10;;;;;;;3.37;2.65;;;12.80;99.90;;;;;;1914433;74;21207;-78
2021/05/03 08:09:37;;;;;;;3.60;2.67;;;13.60;99.90;;;;;;1906906;74;21136;-78
2021/05/03 08:12:03;;;;;;;5.33;2.72;;;13.60;99.90;;;;;;1895013;75;21126;-76
2021/05/03 08:14:31;;;;;;;5.60;2.60;;;13.80;99.90;;;;;;1908285;74;21465;-74
2021/05/03 08:17:05;;;;;;;4.40;2.70;;;13.70;99.90;;;;;;1913527;74;21051;-73
2021/05/03 08:19:29;;;;;;;4.67;2.45;;;13.20;99.90;;;;;;1911494;74;21491;-73
2021/05/03 08:21:56;;;;;;;5.00;2.70;;;13.40;99.90;;;;;;1910996;74;21053;-72
2021/05/03 08:24:22;;;;;;;2.45;1.80;;;13.40;99.90;;;;;;1910973;74;21465;-73
2021/05/03 08:26:48;;;;;;;3.87;2.90;;;13.40;99.90;;;;;;1915885;74;21570;-72
2021/05/03 08:29:18;;;;;;;5.22;2.40;;;12.30;99.90;;;;;;1911999;73;21677;-74
2021/05/03 08:31:42;;;;;;;6.28;2.90;;;12.30;99.90;;;;;;1924377;74;21131;-74
2021/05/03 08:34:08;;;;;;;2.92;2.60;;;12.40;99.90;;;;;;1920253;73;21046;-73
2021/05/03 08:36:34;;;;;;;8.30;2.87;;;12.00;99.90;;;;;;1910119;74;21075;-75
2021/05/03 08:39:00;;;;;;;4.33;2.90;;;11.90;99.90;;;;;;1913636;74;21460;-74
2021/05/03 08:41:27;;;;;;;4.10;2.52;;;11.90;99.90;;;;;;1913346;74;21135;-73
2021/05/03 08:43:53;;;;;;;6.65;3.40;;;11.90;99.90;;;;;;1917921;74;21077;-74
2021/05/03 08:46:29;;;;;;;3.95;2.80;;;11.70;99.90;;;;;;1914388;73;21055;-73
2021/05/03 08:49:05;;;;;;;6.58;3.25;;;11.40;99.90;;;;;;1909525;74;21139;-77
2021/05/03 08:52:13;;;;;;;5.87;3.08;;;11.40;99.90;;;;;;1915441;74;21046;-74
2021/05/03 08:54:43;;;;;;;4.20;2.42;;;11.30;99.90;;;;;;1908254;74;21081;-74
2021/05/03 08:56:25;;;;;;;4.30;2.42;;;11.10;99.90;;;;;;1911304;73;21154;-74
2021/05/03 08:58:51;;;;;;;4.72;2.67;;;11.20;99.90;;;;;;1916195;73;21188;-73
2021/05/03 09:01:17;;;;;;;5.15;2.87;;;11.30;99.90;;;;;;1915953;73;21061;-75
2021/05/03 09:03:43;;;;;;;6.70;2.95;;;11.40;99.90;;;;;;1897918;75;21071;-73
2021/05/03 09:06:10;;;;;;;4.12;2.75;;;11.50;99.90;;;;;;1902075;75;21443;-73
2021/05/03 09:08:36;;;;;;;6.22;2.85;;;11.70;99.90;;;;;;1895945;75;21524;-72
2021/05/03 09:11:02;;;;;;;3.98;2.50;;;11.70;99.90;;;;;;1908139;74;21595;-73
2021/05/03 09:13:28;;;;;;;5.33;3.10;;;11.60;99.90;;;;;;1910113;74;21184;-73
2021/05/03 09:15:54;;;;;;;3.15;2.45;;;11.90;99.90;;;;;;1916378;73;21125;-73
2021/05/03 09:18:20;;;;;;;3.33;2.50;;;12.20;99.90;;;;;;1917063;73;21077;-72
2021/05/03 09:20:47;;;;;;;5.28;2.65;;;12.60;99.90;;;;;;1913799;73;21061;-73
2021/05/03 09:23:23;;;;;;;5.25;2.33;;;12.90;99.90;;;;;;1913555;73;21202;-74
2021/05/03 09:25:52;;;;;;;5.10;2.45;;;13.10;99.90;;;;;;1915382;74;21386;-75
2021/05/03 09:28:22;;;;;;;3.08;2.33;;;13.40;99.90;;;;;;1912731;74;21176;-71
2021/05/03 09:30:45;;;;;;;4.25;2.60;;;13.20;99.90;;;;;;1903973;74;21494;-73
2021/05/03 09:33:11;;;;;;;3.37;2.50;;;13.70;99.90;;;;;;1904836;74;21164;-76
2021/05/03 09:35:37;;;;;;;4.05;2.72;;;13.20;99.90;;;;;;1911236;73;21181;-77
2021/05/03 09:38:03;;;;;;;3.70;2.37;;;13.10;99.90;;;;;;1915583;73;21136;-75
2021/05/03 09:40:29;;;;;;;3.80;2.50;;;13.20;99.90;;;;;;1920128;74;21273;-73
2021/05/03 09:42:56;;;;;;;3.67;2.30;;;13.20;99.90;;;;;;1923916;74;21207;-74
2021/05/03 09:45:22;;;;;;;5.45;2.70;;;13.20;99.90;;;;;;1918643;74;21196;-75
2021/05/03 09:47:49;;;;;;;4.53;2.27;;;13.10;99.90;;;;;;1908095;74;21100;-75
2021/05/03 09:50:15;;;;;;;5.15;2.67;;;13.10;99.90;;;;;;1916668;74;21138;-73
2021/05/03 09:52:41;;;;;;;4.47;2.42;;;13.00;99.90;;;;;;1913445;74;21061;-74
2021/05/03 09:55:07;;;;;;;6.78;2.47;;;13.00;99.90;;;;;;1910530;73;21066;-75
2021/05/03 09:57:33;;;;;;;5.78;2.20;;;13.10;99.90;;;;;;1912255;74;21042;-74
2021/05/03 10:00:01;;;;;;;7.65;1.90;;;13.40;99.90;;;;;;1911959;74;21123;-77
2021/05/03 10:02:35;;;;;;;2.70;2.30;;;13.90;99.90;;;;;;1918520;73;21558;-77
2021/05/03 10:05:04;;;;;;;3.30;2.00;;;14.30;99.90;;;;;;1916406;74;21285;-75
2021/05/03 10:07:29;;;;;;;4.50;2.60;;;14.70;99.90;;;;;;1911879;74;21450;-75
2021/05/03 10:10:01;;;;;;;4.03;2.70;;;14.70;99.90;;;;;;1920427;74;21072;-72
2021/05/03 10:12:26;;;;;;;;;;;13.80;99.90;;;;;;1922163;74;21518;-73
2021/05/03 10:14:52;;;;;;;2.85;2.40;;;13.60;99.90;;;;;;1918500;74;20221;-73
2021/05/03 10:17:19;;;;;;;5.55;3.00;;;13.70;99.90;;;;;;1916730;74;21097;-76
2021/05/03 10:19:45;;;;;;;4.05;2.70;;;13.80;99.90;;;;;;1919777;73;21144;-74
2021/05/03 10:22:11;;;;;;;3.85;2.45;;;14.00;99.90;;;;;;1913238;74;21112;-75
2021/05/03 10:24:37;;;;;;;7.83;2.25;;;13.60;99.90;;;;;;1916307;74;21166;-77
2021/05/03 10:27:03;;;;;;;5.95;2.75;;;14.30;99.90;;;;;;1916260;74;21050;-75
2021/05/03 10:29:29;;;;;;;8.88;2.50;;;14.80;99.90;;;;;;1920890;74;21477;-75
2021/05/03 10:31:55;;;;;;;3.62;2.30;;;14.10;99.90;;;;;;1919757;73;21450;-76
2021/05/03 10:34:21;;;;;;;3.10;1.80;;;14.20;99.90;;;;;;1923041;74;21140;-76
2021/05/03 10:36:48;;;;;;;3.52;2.30;;;14.40;99.90;;;;;;1912895;74;21073;-75
2021/05/03 10:39:14;;;;;;;3.47;2.17;;;14.00;99.90;;;;;;1920586;74;21139;-76
2021/05/03 10:41:40;;;;;;;5.05;2.20;;;13.60;99.90;;;;;;1917014;74;21130;-75
2021/05/03 10:44:06;;;;;;;5.08;2.55;;;13.60;99.90;;;;;;1913772;73;21103;-74
2021/05/03 10:49:11;;;;;;;4.03;2.47;;;13.40;99.90;;;;;;1911099;73;21107;-75
2021/05/03 10:54:08;;;;;;;2.60;2.20;;;13.50;99.90;;;;;;1913941;74;21063;-73
2021/05/03 10:56:34;;;;;;;4.83;2.33;;;13.00;99.90;;;;;;1919082;73;21073;-74
2021/05/03 10:59:00;;;;;;;4.53;2.33;;;13.00;99.90;;;;;;1919626;73;21069;-75
2021/05/03 11:01:26;;;;;;;2.95;2.10;;;12.90;99.90;;;;;;1903043;74;21066;-76
2021/05/03 11:03:52;;;;;;;3.02;2.40;;;13.20;99.90;;;;;;1898505;74;21069;-76
2021/05/03 11:06:18;;;;;;;2.47;2.10;;;12.80;99.90;;;;;;1907329;74;21070;-73
2021/05/03 11:08:44;;;;;;;4.05;2.37;;;12.80;99.90;;;;;;1912776;74;21135;-74
2021/05/03 11:11:13;;;;;;;4.37;2.65;;;13.50;99.90;;;;;;1907194;73;21074;-76
2021/05/03 11:13:40;;;;;;;2.75;1.80;;;14.30;99.90;;;;;;1915590;74;21069;-75
2021/05/03 11:16:06;;;;;;;3.17;1.87;;;14.80;99.90;;;;;;1918082;73;21076;-76
2021/05/03 11:18:32;;;;;;;2.83;1.80;;;15.20;99.90;;;;;;1919063;73;21077;-77
2021/05/03 11:20:59;;;;;;;2.67;1.70;;;15.50;97.80;;;;;;1903897;74;21078;-78
2021/05/03 11:23:27;;;;;;;2.98;1.57;;;15.70;97.70;;;;;;1892284;74;21054;-75
2021/05/03 11:25:53;;;;;;;2.12;1.52;;;16.10;97.00;;;;;;1915835;74;21191;-75
2021/05/03 11:28:23;;;;;;;2.22;1.47;;;16.20;93.90;;;;;;1917383;74;21562;-75
2021/05/03 11:30:56;;;;;;;4.67;1.30;;;15.90;92.80;;;;;;1914278;74;21548;-74
2021/05/03 11:33:23;;;;;;;1.30;1.20;;;15.90;93.90;;;;;;1909921;74;21097;-75
2021/05/03 11:35:58;;;;;;;;;;;15.00;93.20;;;;;;1918209;74;21565;-75
2021/05/03 11:38:30;;;;;;;5.17;1.45;;;14.30;92.20;;;;;;1915936;74;20189;-76
2021/05/03 11:43:37;;;;;;;8.18;1.65;;;14.30;95.60;;;;;;1911759;74;21452;-75
2021/05/03 11:45:50;;;;;;;1.40;1.27;;;14.00;94.90;;;;;;1908571;74;21093;-75
2021/05/03 11:48:16;;;;;;;1.75;1.62;;;13.60;98.30;;;;;;1904527;74;21124;-76
2021/05/03 11:50:42;;;;;;;3.20;1.60;;;13.70;98.60;;;;;;1909034;74;21074;-76
2021/05/03 11:53:08;;;;;;;2.52;1.37;;;13.90;99.10;;;;;;1912237;74;21062;-74
2021/05/03 11:55:34;;;;;;;2.12;1.52;;;14.10;99.60;;;;;;1911198;74;21135;-74
2021/05/03 11:58:01;;;;;;;1.87;1.20;;;14.60;97.80;;;;;;1920178;74;21138;-75
2021/05/03 12:00:27;;;;;;;1.72;1.20;;;15.40;96.20;;;;;;1906535;74;21047;-75
2021/05/03 12:02:53;;;;;;;2.58;1.10;;;16.30;91.90;;;;;;1909091;74;21073;-75
2021/05/03 12:05:19;;;;;;;7.87;1.12;;;16.90;87.50;;;;;;1914052;74;21069;-76
2021/05/03 12:07:46;;;;;;;1.98;1.45;;;16.70;86.80;;;;;;1887968;74;21168;-75
2021/05/03 12:10:12;;;;;;;1.87;1.37;;;16.20;87.10;;;;;;1911146;74;21039;-75
2021/05/03 12:12:38;;;;;;;2.45;1.20;;;16.60;82.90;;;;;;1915928;74;21066;-76
2021/05/03 12:15:04;;;;;;;7.65;1.55;;;17.00;82.20;;;;;;1909757;74;21073;-74
2021/05/03 12:17:30;;;;;;;2.55;1.10;;;16.30;79.50;;;;;;1914352;74;21073;-75
2021/05/03 12:19:56;;;;;;;4.75;1.30;;;15.70;82.40;;;;;;1910998;74;21054;-75
2021/05/03 12:22:22;;;;;;;1.10;1.00;;;15.50;81.60;;;;;;1912748;73;21039;-74
2021/05/03 12:24:50;;;;;;;1.10;1.00;;;15.60;84.70;;;;;;1908268;74;21212;-76
2021/05/03 12:27:16;;;;;;;2.30;1.52;;;15.10;82.70;;;;;;1918223;74;21072;-74
2021/05/03 12:29:42;;;;;;;2.55;1.00;;;15.10;82.30;;;;;;1919308;74;21116;-74
2021/05/03 12:32:08;;;;;;;3.10;1.50;;;15.00;82.50;;;;;;1917730;74;21042;-74
2021/05/03 12:34:34;;;;;;;1.62;1.05;;;15.20;86.50;;;;;;1921204;74;21085;-75
2021/05/03 12:37:01;;;;;;;1.22;1.10;;;15.20;80.30;;;;;;1920098;73;21089;-75
2021/05/03 12:39:28;;;;;;;3.35;1.02;;;15.30;77.80;;;;;;1917482;74;21077;-74
2021/05/03 12:41:55;;;;;;;2.17;1.10;;;15.20;82.00;;;;;;1911143;74;21042;-71
2021/05/03 12:44:25;;;;;;;2.22;1.15;;;15.30;80.60;;;;;;1917293;74;21114;-78
2021/05/03 12:46:51;;;;;;;3.17;1.15;;;15.00;79.50;;;;;;1914656;74;21160;-79
2021/05/03 12:49:19;;;;;;;1.10;1.00;;;15.00;80.60;;;;;;1906978;74;21132;-80
2021/05/03 12:51:52;;;;;;;1.55;1.15;;;15.80;79.70;;;;;;1918452;74;21098;-79
2021/05/03 12:54:33;;;;;;;1.95;1.30;;;15.80;77.30;;;;;;1914180;73;21160;-80
2021/05/03 12:56:58;;;;;;;2.02;1.30;;;15.70;75.70;;;;;;1920048;74;21069;-79
2021/05/03 12:59:32;;;;;;;1.17;1.00;;;15.70;76.00;;;;;;1916313;74;21103;-83
2021/05/03 13:04:24;;;;;;;2.60;0.93;;;15.70;75.90;;;;;;1914746;74;21106;-81
2021/05/03 13:07:00;;;;;;;1.65;0.88;;;16.20;72.50;;;;;;1911050;74;21487;-80
2021/05/03 13:22:37;;;;;;;3.15;1.02;;;18.70;62.80;;;;;;1915360;74;21066;-78
2021/05/03 13:25:10;;;;;;;0.82;0.70;;;18.60;61.50;;;;;;1915711;74;21111;-78